Terminal Aerodrome Forecast
Issued by NWS

Home | Current Version | Previous Version | Text Only | Print | Product List | Glossary On
Versions: 1 2 3 4 5 6 7 8 9 10 11 12 13 14 15 16
000
FTUS43 KICT 201100
TAFCNU
TAF
KCNU 201121Z 2012/2112 17010KT P6SM SCT120 BKN200
     FM201700 18014KT P6SM SCT050 BKN150
     FM210100 17007KT P6SM VCSH SCT030 BKN050=

USA.gov is the U.S. government's official web portal to all federal, state and local government web resources and services.